• Join FlightAware (Why Join?)
  • Login
  • US Flag 
05:27AM EDT


 

Airport Tracker/Info


-or-


 

Live Flight TrackerFlight Track Log ✈ N97FG ✈ 03-May-2013 ✈ KPTK - KRST

Flight Track Log - Related Links

Times and Time Zones

All times are in EDT time to prevent confusion due to time zone crossing. See the N97FG flight status page for this flight to view local times or setup timezone preferences in your user account.

Time Position Orientation Groundspeed Altitude Reporting Facility
EDT Latitude Longitude Course Direction KTS MPH feet Rate Location/Type
10:05AM 42.6689 -83.3450 184° South 210 242 3,000  Level Cleveland Center
10:06AM 42.6292 -83.3489 184° South 208 239 4,300 1,500 Climbing Cleveland Center
10:06AM 42.6181 -83.3764 241° Southwest 244 281 4,900 2,520 Climbing Cleveland Center
10:07AM 42.5969 -83.4686 253° West 261 300 7,700 2,880 Climbing Cleveland Center
10:08AM 42.5736 -83.5664 252° West 273 314 10,800 2,640 Climbing Cleveland Center
10:09AM 42.5500 -83.6750 254° West 283 326 13,000 2,040 Climbing Cleveland Center
10:10AM 42.5219 -83.7864 251° West 311 358 14,900 1,800 Climbing Cleveland Center
10:11AM 42.5056 -83.9181 260° West 333 383 16,600 1,560 Climbing Cleveland Center
10:12AM 42.5058 -84.0561 270° West 361 415 18,100 1,620 Climbing Cleveland Center
10:13AM 42.5033 -84.1997 269° West 377 434 19,900 2,100 Climbing Cleveland Center
10:14AM 42.5031 -84.3433 270° West 383 441 22,400 2,040 Climbing Cleveland Center
10:17AM 42.4992 -84.6756 269° West 368 423 27,000 1,740 Climbing Chicago Center
10:18AM 42.4964 -84.8172 269° West 376 433 28,600 1,320 Climbing Chicago Center
10:19AM 42.4939 -84.9644 269° West 388 447 29,800 1,200 Climbing Chicago Center
10:20AM 42.4914 -85.1136 269° West 400 460 31,200 1,020 Climbing Chicago Center
10:21AM 42.4869 -85.2686 268° West 408 470 32,000 960 Climbing Chicago Center
10:22AM 42.5022 -85.4300 277° West 441 507 33,300 1,440 Climbing Chicago Center
10:23AM 42.5444 -85.6147 287° West 430 495 35,000 1,500 Climbing Chicago Center
10:24AM 42.5803 -85.7708 287° West 431 496 36,400 1,320 Climbing Chicago Center
10:25AM 42.6161 -85.9233 288° West 426 490 37,800 1,320 Climbing Chicago Center
10:26AM 42.6503 -86.0744 287° West 420 483 39,200 1,020 Climbing Chicago Center
10:27AM 42.6842 -86.2233 287° West 412 474 40,000 360 Climbing Chicago Center
10:28AM 42.7189 -86.3747 287° West 415 478 40,000  Level Chicago Center
10:29AM 42.7542 -86.5367 287° West 434 499 40,000  Level Chicago Center
10:30AM 42.7903 -86.7006 287° West 449 517 40,000  Level Chicago Center
10:31AM 42.8342 -86.8978 287° West 449 517 40,000  Level Chicago Center
10:32AM 42.8708 -87.0644 287° West 456 525 40,000  Level Chicago Center
10:33AM 42.9072 -87.2308 287° West 455 524 40,000  Level Chicago Center
10:34AM 42.9461 -87.4139 286° West 457 526 40,000  Level Chicago Center
10:35AM 42.9819 -87.5811 286° West 457 526 40,000  Level Chicago Center
10:36AM 43.0167 -87.7497 286° West 458 527 40,000  Level Chicago Center
10:37AM 43.0533 -87.9181 287° West 459 528 40,000  Level Chicago Center
10:38AM 43.0875 -88.0850 286° West 455 524 40,000  Level Chicago Center
10:39AM 43.1225 -88.2531 286° West 457 526 40,000  Level Chicago Center
10:41AM 43.1633 -88.4494 286° West 455 524 40,000  Level Chicago Center
10:42AM 43.1981 -88.6186 286° West 456 525 40,000  Level Chicago Center
10:43AM 43.2322 -88.7911 285° West 462 532 40,000  Level Chicago Center
10:44AM 43.2669 -88.9631 286° West 465 535 40,000 -240 Level Chicago Center
10:45AM 43.3003 -89.1319 285° West 459 528 39,600 -960 Descending Chicago Center
10:46AM 43.3336 -89.2978 286° West 451 519 38,100 -1,620 Descending Chicago Center
10:47AM 43.3642 -89.4614 284° West 443 510 36,300 -2,100 Descending Chicago Center
10:48AM 43.3961 -89.6311 285° West 455 524 33,900 -2,880 Descending Chicago Center
10:49AM 43.4350 -89.8325 285° West 466 536 30,400 -1,920 Descending Chicago Center
10:50AM 43.4622 -89.9697 285° West 452 520 30,000 -240 Descending Minneapolis Center
10:51AM 43.4981 -90.1653 284° West 455 524 30,000 -120 Level Minneapolis Center
10:52AM 43.5267 -90.3231 284° West 472 543 29,800 -1,380 Descending Minneapolis Center
10:53AM 43.5664 -90.5333 285° West 476 548 27,200 -2,280 Descending Minneapolis Center
10:54AM 43.6000 -90.7067 285° West 475 547 25,100 -1,620 Descending Minneapolis Center
10:55AM 43.6306 -90.8775 284° West 469 540 24,000 -540 Descending Minneapolis Center
10:56AM 43.6603 -91.0419 284° West 454 522 24,000  Level Minneapolis Center
10:57AM 43.6892 -91.2022 284° West 440 506 24,000 -180 Level Minneapolis Center
10:58AM 43.7225 -91.3986 283° West 442 509 23,700 -960 Descending Minneapolis Center
10:59AM 43.7517 -91.5658 284° West 449 517 22,100 -1,620 Descending Minneapolis Center
11:00AM 43.7789 -91.7261 283° West 440 506 20,500 -1,620 Descending Minneapolis Center
11:01AM 43.7972 -91.8817 279° West 417 480 18,900 -1,800 Descending Minneapolis Center
11:02AM 43.8122 -92.0531 277° West 389 448 16,900 -3,420 Descending Minneapolis Center
11:03AM 43.8219 -92.1728 276° West 321 369 11,900 -4,980 Descending Minneapolis Center
11:04AM 43.8144 -92.2903 265° West 290 334 6,800 -4,200 Descending Minneapolis Center
11:05AM 43.7553 -92.3367 210° Southwest 263 303 3,300 -1,860 Descending Minneapolis Center
11:06AM 43.7933 -92.3769 323° Northwest 181 208 3,000 -240 Descending Minneapolis Center
11:07AM 43.8297 -92.3919 343° North 142 163 2,900 -180 Descending Minneapolis Center
11:08AM 43.8578 -92.4194 325° Northwest 129 148 2,700 -540 Descending Minneapolis Center
11:09AM 43.8842 -92.4569 314° West 126 145 1,900 -780 Descending Minneapolis Center
11:10AM 43.9064 -92.4908 312° West 123 142 1,200 -720 Descending Minneapolis Center
11:12AM 43.9000 -92.5000 270° West  Level FlightAware Approximate
11:19AM 43.9083 -92.5000 270° West  Level Estimated